createdAt,value
2022-10-18T07:29:35.112Z,748.12
2022-10-18T07:30:34.939Z,776.25
2022-10-18T07:31:34.927Z,826.88
2022-10-18T07:32:34.917Z,939.38
2022-10-18T07:33:34.920Z,922.50
2022-10-18T07:34:34.927Z,849.38
2022-10-18T07:35:34.879Z,821.25
2022-10-18T07:36:34.877Z,787.50
2022-10-18T07:37:35.229Z,759.38
2022-10-18T07:38:34.849Z,742.50
2022-10-18T07:39:34.835Z,776.25
2022-10-18T07:40:34.835Z,759.38
2022-10-18T07:41:34.818Z,770.62
2022-10-18T07:42:37.848Z,804.38
2022-10-18T07:43:34.806Z,815.62
2022-10-18T07:44:34.786Z,826.88
2022-10-18T07:45:34.859Z,832.50
2022-10-18T07:46:34.767Z,849.38
2022-10-18T07:47:35.364Z,883.12
2022-10-18T07:48:34.749Z,883.12
2022-10-18T07:49:34.862Z,922.50
2022-10-18T07:50:34.881Z,978.75
2022-10-18T07:51:34.719Z,945.00
2022-10-18T07:52:34.724Z,939.38
2022-10-18T07:53:34.710Z,933.75
2022-10-18T07:54:34.704Z,939.38
2022-10-18T07:55:34.681Z,939.38
2022-10-18T07:56:34.719Z,928.12
2022-10-18T07:57:37.649Z,933.75
2022-10-18T07:58:34.651Z,950.62
2022-10-18T07:59:34.627Z,1012.50
2022-10-18T08:00:34.621Z,1051.88
2022-10-18T08:01:34.675Z,1040.62
2022-10-18T08:02:34.600Z,1051.88
2022-10-18T08:03:34.598Z,1051.88
2022-10-18T08:04:34.623Z,1057.50
2022-10-18T08:05:34.589Z,1063.12
2022-10-18T08:06:34.578Z,1068.75
2022-10-18T08:07:34.722Z,1074.38
2022-10-18T08:08:34.547Z,1085.62
2022-10-18T08:09:34.538Z,1119.38
2022-10-18T08:10:34.517Z,1063.12
2022-10-18T08:11:34.526Z,995.62
2022-10-18T08:12:37.496Z,978.75
2022-10-18T08:13:34.521Z,1001.25
2022-10-18T08:14:34.478Z,1068.75
2022-10-18T08:15:34.469Z,1113.75
2022-10-18T08:16:34.471Z,1113.75
2022-10-18T08:17:34.825Z,1125.00
2022-10-18T08:18:34.426Z,1158.75
2022-10-18T08:19:34.438Z,1198.12
2022-10-18T08:20:35.408Z,1215.00
2022-10-18T08:21:34.448Z,1220.62
2022-10-18T08:22:34.389Z,1237.50
2022-10-18T08:23:34.389Z,1248.75
2022-10-18T08:24:34.396Z,1248.75
2022-10-18T08:26:34.362Z,1186.88
2022-10-18T08:27:37.340Z,1170.00
2022-10-18T08:28:34.403Z,1170.00
2022-10-18T08:29:34.416Z,1181.25
2022-10-18T08:30:34.319Z,1186.88
2022-10-18T08:31:34.312Z,1215.00
2022-10-18T08:32:34.709Z,1282.50
2022-10-18T08:33:34.278Z,1350.00
2022-10-18T08:34:34.329Z,1417.50
2022-10-18T08:35:34.263Z,1423.12
2022-10-18T08:36:34.300Z,1372.50
2022-10-18T08:37:34.752Z,1333.12
2022-10-18T08:38:34.233Z,1327.50
2022-10-18T08:39:34.213Z,1321.88
2022-10-18T08:40:34.263Z,1316.25
2022-10-18T08:41:34.192Z,1321.88
2022-10-18T08:42:37.173Z,1366.88
2022-10-18T08:44:34.222Z,1434.38
2022-10-18T08:45:42.676Z,1479.38
2022-10-18T08:46:34.135Z,1501.88
2022-10-18T08:47:34.558Z,1479.38
2022-10-18T08:48:34.123Z,1423.12
2022-10-18T08:49:46.852Z,1389.38
2022-10-18T08:50:34.110Z,1406.25
2022-10-18T08:51:34.089Z,1406.25
2022-10-18T08:52:34.165Z,1372.50
2022-10-18T08:53:36.252Z,1366.88
2022-10-18T08:54:34.051Z,1428.75
2022-10-18T08:55:34.060Z,1507.50
2022-10-18T08:56:34.042Z,1530.00
2022-10-18T08:57:37.044Z,1518.75
2022-10-18T08:58:34.041Z,1518.75
2022-10-18T08:59:33.997Z,1552.50
2022-10-18T09:00:34.030Z,1591.88
2022-10-18T09:01:34.022Z,1625.62
2022-10-18T09:02:34.335Z,1681.88
2022-10-18T09:03:34.025Z,1732.50
2022-10-18T09:04:33.945Z,1726.88
2022-10-18T09:05:33.957Z,1670.62
2022-10-18T09:06:33.931Z,1603.12
2022-10-18T09:07:33.917Z,1558.12
2022-10-18T09:08:33.908Z,1552.50
2022-10-18T09:09:33.913Z,1563.75
2022-10-18T09:10:33.898Z,1552.50
2022-10-18T09:11:33.882Z,1558.12
2022-10-18T09:12:36.931Z,1546.88
2022-10-18T09:13:33.874Z,1558.12
2022-10-18T09:14:33.855Z,1546.88
2022-10-18T09:15:33.863Z,1546.88
2022-10-18T09:16:33.833Z,1541.25
2022-10-18T09:17:33.853Z,1541.25
2022-10-18T09:18:33.941Z,1490.62
2022-10-18T09:19:33.806Z,1440.00
2022-10-18T09:20:33.795Z,1428.75
2022-10-18T09:21:33.779Z,1513.12
2022-10-18T09:22:34.095Z,1586.25
2022-10-18T09:23:33.772Z,1625.62
2022-10-18T09:24:33.738Z,1636.88
2022-10-18T09:25:33.748Z,1636.88
2022-10-18T09:26:33.734Z,1653.75
2022-10-18T09:27:36.715Z,1648.12
2022-10-18T09:28:33.777Z,1597.50
2022-10-18T09:29:33.703Z,1597.50
2022-10-18T09:30:33.683Z,1614.38
2022-10-18T09:31:33.671Z,1620.00
2022-10-18T09:32:34.093Z,1653.75
2022-10-18T09:33:33.651Z,1670.62
2022-10-18T09:34:33.656Z,1687.50
2022-10-18T09:35:33.633Z,1721.25
2022-10-18T09:36:33.626Z,1749.38
2022-10-18T09:37:33.604Z,1783.12
2022-10-18T09:38:34.053Z,1895.62
2022-10-18T09:39:33.598Z,1951.88
2022-10-18T09:40:33.574Z,2013.75
2022-10-18T09:41:33.568Z,1980.00
2022-10-18T09:42:36.543Z,1985.62
2022-10-18T09:43:33.572Z,1980.00
2022-10-18T09:44:33.534Z,1800.00
2022-10-18T09:45:33.529Z,1833.75
2022-10-18T09:46:33.507Z,1811.25
2022-10-18T09:47:33.501Z,1760.62
2022-10-18T09:48:33.495Z,1710.00
2022-10-18T09:49:33.518Z,1760.62
2022-10-18T09:50:33.461Z,1777.50
2022-10-18T09:51:33.449Z,1726.88
2022-10-18T09:52:33.829Z,1777.50
2022-10-18T09:53:33.439Z,1721.25
2022-10-18T09:54:33.466Z,1783.12
2022-10-18T09:55:33.407Z,1805.62
2022-10-18T09:56:37.870Z,1940.62
2022-10-18T09:57:36.383Z,1929.38
2022-10-18T09:58:33.399Z,1884.38
2022-10-18T09:59:33.373Z,1895.62
2022-10-18T10:00:33.355Z,1856.25
2022-10-18T10:01:33.347Z,1878.75
2022-10-18T10:02:33.367Z,1901.25
2022-10-18T10:03:33.329Z,1906.88
2022-10-18T10:04:33.317Z,1923.75
2022-10-18T10:05:33.341Z,1704.38
2022-10-18T10:06:33.301Z,2013.75
2022-10-18T10:07:34.846Z,2053.12
2022-10-18T10:08:33.274Z,2115.00
2022-10-18T10:09:33.263Z,2131.88
2022-10-18T10:10:33.272Z,2103.75
2022-10-18T10:11:33.241Z,2098.12
2022-10-18T10:12:36.265Z,2086.88
2022-10-18T10:13:33.233Z,2115.00
2022-10-18T10:14:33.206Z,2160.00
2022-10-18T10:15:37.088Z,2176.88
2022-10-18T10:16:33.187Z,2182.50
2022-10-18T10:17:33.471Z,2205.00
2022-10-18T10:18:33.186Z,2210.62
2022-10-18T10:19:33.158Z,2216.25
2022-10-18T10:20:33.158Z,2216.25
2022-10-18T10:21:33.134Z,2199.38
2022-10-18T10:22:33.118Z,2148.75
2022-10-18T10:23:33.132Z,2109.38
2022-10-18T10:24:33.101Z,2086.88
2022-10-18T10:25:33.095Z,2064.38
2022-10-18T10:26:33.073Z,2058.75
2022-10-18T10:27:44.385Z,2103.75
2022-10-18T10:28:33.147Z,2176.88
2022-10-18T10:29:44.170Z,2227.50
2022-10-18T10:30:33.039Z,2176.88
2022-10-18T10:31:33.028Z,2176.88
2022-10-18T10:32:33.018Z,2221.88
2022-10-18T10:33:33.002Z,2261.25
2022-10-18T10:34:33.000Z,2317.50
2022-10-18T10:35:52.524Z,2362.50
2022-10-18T10:36:33.974Z,2368.12
2022-10-18T10:37:33.356Z,2356.88
2022-10-18T10:38:32.957Z,2356.88
2022-10-18T10:39:33.012Z,2385.00
2022-10-18T10:40:32.930Z,2435.62
2022-10-18T10:42:35.910Z,2446.88
2022-10-18T10:43:37.557Z,2413.12
2022-10-18T10:44:32.913Z,2340.00
2022-10-18T10:45:32.883Z,2216.25
2022-10-18T10:46:32.868Z,2086.88
2022-10-18T10:47:32.852Z,2013.75
2022-10-18T10:48:33.504Z,1980.00
2022-10-18T10:49:40.178Z,1951.88
2022-10-18T10:51:32.846Z,2019.38
2022-10-18T10:52:32.818Z,2092.50
2022-10-18T10:53:32.800Z,2126.25
2022-10-18T10:54:32.788Z,2126.25
2022-10-18T10:55:35.237Z,2137.50
2022-10-18T10:56:32.789Z,2171.25
2022-10-18T10:57:35.746Z,2238.75
2022-10-18T10:58:32.758Z,2317.50
2022-10-18T10:59:32.807Z,2435.62
2022-10-18T11:00:32.770Z,2491.88
2022-10-18T11:01:32.708Z,2503.12
2022-10-18T11:02:33.047Z,2480.62
2022-10-18T11:03:32.740Z,2458.12
2022-10-18T11:04:44.020Z,2424.38
2022-10-18T11:05:32.677Z,2424.38
2022-10-18T11:06:32.668Z,2480.62
2022-10-18T11:07:32.642Z,2531.25
2022-10-18T11:08:32.655Z,2548.12
2022-10-18T11:09:32.618Z,2542.50
2022-10-18T11:10:32.621Z,2548.12
2022-10-18T11:11:32.621Z,2565.00
2022-10-18T11:12:35.753Z,2581.88
2022-10-18T11:13:32.596Z,2593.12
2022-10-18T11:14:32.587Z,2615.62
2022-10-18T11:15:32.564Z,2632.50
2022-10-18T11:16:32.597Z,2615.62
2022-10-18T11:17:39.563Z,2581.88
2022-10-18T11:18:32.536Z,2520.00
2022-10-18T11:19:32.533Z,2480.62
2022-10-18T11:20:32.516Z,2463.75
2022-10-18T11:21:40.618Z,2452.50
2022-10-18T11:22:32.893Z,2491.88
2022-10-18T11:23:32.488Z,2531.25
2022-10-18T11:24:32.470Z,2604.38
2022-10-18T11:25:32.461Z,2677.50
2022-10-18T11:26:32.452Z,2716.88
2022-10-18T11:27:35.473Z,2666.25
2022-10-18T11:28:41.528Z,2587.50
2022-10-18T11:29:32.423Z,2559.38
2022-10-18T11:30:32.413Z,2576.25
2022-10-18T11:31:32.452Z,2593.12
2022-10-18T11:32:32.615Z,2655.00
2022-10-18T11:34:07.171Z,2705.62
2022-10-18T11:34:33.501Z,2694.38
2022-10-18T11:35:32.355Z,2795.62
2022-10-18T11:36:34.052Z,2767.50
2022-10-18T11:37:39.532Z,2835.00
2022-10-18T11:38:32.330Z,2295.00
2022-10-18T11:39:32.326Z,2638.12
2022-10-18T11:40:32.317Z,2615.62
2022-10-18T11:41:32.342Z,2497.50
2022-10-18T11:42:39.696Z,2430.00
2022-10-18T11:43:50.540Z,2385.00
2022-10-18T11:44:33.272Z,2368.12
2022-10-18T11:45:32.265Z,2390.62
2022-10-18T11:46:32.254Z,2446.88
2022-10-18T11:47:32.426Z,2491.88
2022-10-18T11:48:32.230Z,2047.50
2022-10-18T11:49:32.221Z,2491.88
2022-10-18T11:50:32.222Z,2542.50
2022-10-18T11:51:34.357Z,2660.62
2022-10-18T11:52:33.223Z,2750.62
2022-10-18T11:53:32.339Z,2761.88
2022-10-18T11:54:32.234Z,2649.38
2022-10-18T11:55:33.184Z,2514.38
2022-10-18T11:56:32.155Z,2458.12
2022-10-18T11:57:35.576Z,2435.62
2022-10-18T11:58:32.138Z,2503.12
2022-10-18T11:59:32.191Z,2553.75
2022-10-18T12:00:32.110Z,2503.12
2022-10-18T12:01:32.098Z,2497.50
2022-10-18T12:02:32.533Z,2497.50
2022-10-18T12:03:32.081Z,2137.50
2022-10-18T12:04:32.098Z,1541.25
2022-10-18T12:05:33.059Z,2137.50
2022-10-18T12:06:32.061Z,2610.00
2022-10-18T12:07:32.567Z,1771.88
2022-10-18T12:08:32.021Z,1946.25
2022-10-18T12:09:32.020Z,1715.62
2022-10-18T12:10:44.262Z,1620.00
2022-10-18T12:11:33.057Z,2385.00
2022-10-18T12:12:35.241Z,2632.50
2022-10-18T12:13:31.991Z,2632.50
2022-10-18T12:14:31.973Z,2655.00
2022-10-18T12:15:31.945Z,2716.88
2022-10-18T12:16:50.429Z,2801.25
2022-10-18T12:17:43.147Z,2851.88
2022-10-18T12:18:32.928Z,2919.38
2022-10-18T12:19:31.918Z,2176.88
2022-10-18T12:20:31.918Z,2092.50
2022-10-18T12:21:31.944Z,1406.25
2022-10-18T12:22:32.182Z,1237.50
2022-10-18T12:23:31.876Z,1130.62
2022-10-18T12:24:31.868Z,1125.00
2022-10-18T12:25:31.910Z,1130.62
2022-10-18T12:26:31.867Z,1170.00
2022-10-18T12:27:34.961Z,1243.12
2022-10-18T12:28:31.864Z,1541.25
2022-10-18T12:29:31.804Z,1440.00
2022-10-18T12:30:31.821Z,1586.25
2022-10-18T12:31:31.790Z,1344.38
2022-10-18T12:32:32.128Z,1293.75
2022-10-18T12:33:31.787Z,1569.38
2022-10-18T12:34:31.751Z,2064.38
2022-10-18T12:35:31.803Z,1108.12
2022-10-18T12:36:31.741Z,1248.75
2022-10-18T12:37:32.073Z,1023.75
2022-10-18T12:38:31.714Z,1237.50
2022-10-18T12:39:43.323Z,1243.12
2022-10-18T12:40:32.875Z,1243.12
2022-10-18T12:41:31.687Z,1884.38
2022-10-18T12:42:34.664Z,1878.75
2022-10-18T12:43:31.781Z,1310.62
2022-10-18T12:44:31.676Z,1248.75
2022-10-18T12:45:31.644Z,2255.62
2022-10-18T12:46:31.658Z,2188.12
2022-10-18T12:47:31.918Z,2154.38
2022-10-18T12:48:31.617Z,2137.50
2022-10-18T12:49:31.702Z,2131.88
2022-10-18T12:50:31.597Z,2176.88
2022-10-18T12:51:31.640Z,2210.62
2022-10-18T12:52:31.568Z,2193.75
2022-10-18T12:53:31.560Z,2143.12
2022-10-18T12:54:31.553Z,2075.62
2022-10-18T12:55:31.604Z,2058.75
2022-10-18T12:56:31.537Z,2053.12
2022-10-18T12:57:34.693Z,2030.62
2022-10-18T12:58:31.536Z,1996.88
2022-10-18T12:59:31.500Z,1991.25
2022-10-18T13:00:31.563Z,2019.38
2022-10-18T13:01:31.554Z,2053.12
2022-10-18T13:02:31.847Z,2058.75
2022-10-18T13:03:31.465Z,1631.25
2022-10-18T13:04:31.464Z,1721.25
2022-10-18T13:05:41.997Z,1665.00
2022-10-18T13:06:32.414Z,2002.50
2022-10-18T13:07:32.000Z,1963.12
2022-10-18T13:08:31.415Z,939.38
2022-10-18T13:09:31.407Z,765.00
2022-10-18T13:10:31.390Z,748.12
2022-10-18T13:11:31.366Z,838.12
2022-10-18T13:12:34.480Z,1254.38
2022-10-18T13:13:39.568Z,1833.75
2022-10-18T13:14:31.338Z,1878.75
2022-10-18T13:15:34.171Z,1912.50
2022-10-18T13:16:31.318Z,1906.88
2022-10-18T13:17:31.618Z,1873.12
2022-10-18T13:18:31.347Z,1828.12
2022-10-18T13:19:31.290Z,1805.62
2022-10-18T13:20:31.291Z,1771.88
2022-10-18T13:21:31.281Z,1771.88
2022-10-18T13:22:31.261Z,1591.88
2022-10-18T13:23:32.722Z,1687.50
2022-10-18T13:24:31.232Z,1704.38
2022-10-18T13:25:31.283Z,1704.38
2022-10-18T13:26:31.215Z,1749.38
2022-10-18T13:27:36.614Z,1721.25
2022-10-18T13:28:31.273Z,1344.38
2022-10-18T13:29:31.196Z,1141.88
2022-10-18T13:30:31.282Z,1147.50
2022-10-18T13:31:31.163Z,849.38
2022-10-18T13:32:31.397Z,798.75
2022-10-18T13:33:31.144Z,714.38
2022-10-18T13:34:31.134Z,635.62
2022-10-18T13:35:31.127Z,663.75
2022-10-18T13:36:31.117Z,725.62
2022-10-18T13:37:31.214Z,759.38
2022-10-18T13:38:31.088Z,933.75
2022-10-18T13:39:31.087Z,765.00
2022-10-18T13:40:31.076Z,894.38
2022-10-18T13:41:34.334Z,883.12
2022-10-18T13:42:34.413Z,1344.38
2022-10-18T13:43:31.068Z,838.12
2022-10-18T13:44:31.031Z,793.12
2022-10-18T13:45:31.033Z,843.75
2022-10-18T13:46:31.011Z,1648.12
2022-10-18T13:47:31.002Z,1715.62
2022-10-18T13:48:31.023Z,1704.38
2022-10-18T13:49:30.972Z,1681.88
2022-10-18T13:50:30.976Z,1670.62
2022-10-18T13:51:30.952Z,1608.75
2022-10-18T13:52:31.209Z,725.62
2022-10-18T13:53:30.940Z,579.38
2022-10-18T13:54:30.993Z,590.62
2022-10-18T13:55:30.918Z,922.50
2022-10-18T13:56:30.912Z,708.75
2022-10-18T13:57:33.894Z,945.00
2022-10-18T13:58:30.903Z,708.75
2022-10-18T13:59:30.896Z,607.50
2022-10-18T14:00:30.865Z,540.00
2022-10-18T14:01:30.875Z,562.50
2022-10-18T14:02:50.516Z,579.38
2022-10-18T14:03:55.758Z,540.00
2022-10-18T14:04:31.828Z,506.25
2022-10-18T14:05:30.828Z,506.25
2022-10-18T14:06:30.808Z,495.00
2022-10-18T14:07:30.798Z,759.38
2022-10-18T14:08:30.842Z,495.00
2022-10-18T14:09:43.655Z,495.00
2022-10-18T14:10:43.847Z,652.50
2022-10-18T14:11:31.750Z,630.00
2022-10-18T14:12:34.010Z,1338.75
2022-10-18T14:13:30.773Z,1440.00
2022-10-18T14:14:30.713Z,1288.12
2022-10-18T14:15:30.722Z,1001.25
2022-10-18T14:16:30.706Z,1158.75
2022-10-18T14:17:30.752Z,1378.12
2022-10-18T14:18:31.826Z,596.25
2022-10-18T14:19:30.694Z,1243.12
2022-10-18T14:20:30.661Z,928.12
2022-10-18T14:21:31.685Z,933.75
2022-10-18T14:22:30.949Z,798.75
2022-10-18T14:23:30.655Z,511.88
2022-10-18T14:24:30.618Z,472.50
2022-10-18T14:25:30.607Z,399.38
2022-10-18T14:26:30.623Z,376.88
2022-10-18T14:27:33.829Z,382.50
2022-10-18T14:28:48.031Z,399.38
2022-10-18T14:29:31.619Z,399.38
2022-10-18T14:30:30.560Z,416.25
2022-10-18T14:31:30.540Z,450.00
2022-10-18T14:32:30.533Z,478.12
2022-10-18T14:33:30.529Z,517.50
2022-10-18T14:34:30.540Z,511.88
2022-10-18T14:35:32.982Z,528.75
2022-10-18T14:36:30.495Z,590.62
2022-10-18T14:37:30.878Z,675.00
2022-10-18T14:38:30.471Z,849.38
2022-10-18T14:39:30.482Z,1001.25
2022-10-18T14:40:30.444Z,630.00
2022-10-18T14:41:30.442Z,601.88
2022-10-18T14:42:33.423Z,635.62
2022-10-18T14:43:30.540Z,973.12
2022-10-18T14:44:30.425Z,1130.62
2022-10-18T14:45:30.416Z,1108.12
2022-10-18T14:46:31.778Z,1096.88
2022-10-18T14:47:30.781Z,1046.25
2022-10-18T14:48:30.375Z,984.38
2022-10-18T14:50:30.905Z,928.12
2022-10-18T14:51:30.347Z,894.38
2022-10-18T14:52:35.109Z,855.00
2022-10-18T14:53:30.310Z,838.12
2022-10-18T14:54:31.947Z,849.38
2022-10-18T14:55:30.326Z,855.00
2022-10-18T14:56:30.286Z,843.75
2022-10-18T14:57:33.726Z,804.38
2022-10-18T14:58:30.278Z,781.88
2022-10-18T14:59:30.241Z,770.62
2022-10-18T15:00:30.286Z,753.75
2022-10-18T15:01:30.300Z,731.25
2022-10-18T15:02:30.497Z,714.38
2022-10-18T15:03:30.213Z,708.75
2022-10-18T15:04:30.199Z,714.38
2022-10-18T15:05:30.223Z,703.12
2022-10-18T15:06:30.205Z,691.88
2022-10-18T15:07:30.411Z,675.00
2022-10-18T15:08:30.175Z,658.12
2022-10-18T15:09:30.147Z,658.12
2022-10-18T15:10:30.187Z,658.12
2022-10-18T15:11:30.134Z,658.12
2022-10-18T15:12:40.879Z,641.25
2022-10-18T15:13:31.114Z,635.62
2022-10-18T15:14:30.123Z,618.75
2022-10-18T15:15:30.078Z,596.25
2022-10-18T15:16:30.081Z,590.62
2022-10-18T15:17:30.067Z,562.50
2022-10-18T15:19:30.067Z,540.00
2022-10-18T15:20:30.028Z,534.38
2022-10-18T15:21:30.048Z,517.50
2022-10-18T15:22:32.399Z,483.75
2022-10-18T15:23:30.010Z,427.50
2022-10-18T15:24:29.988Z,298.12
2022-10-18T15:25:31.969Z,281.25
2022-10-18T15:26:30.182Z,337.50
2022-10-18T15:27:33.248Z,376.88
2022-10-18T15:29:29.933Z,264.38
2022-10-18T15:30:29.932Z,213.75
2022-10-18T15:31:29.927Z,202.50
2022-10-18T15:32:30.141Z,196.88
2022-10-18T15:33:29.909Z,196.88
2022-10-18T15:34:29.907Z,191.25
2022-10-18T15:35:29.898Z,185.62
2022-10-18T15:36:29.904Z,185.62
2022-10-18T15:37:30.103Z,180.00
2022-10-18T15:38:29.849Z,174.38
2022-10-18T15:39:29.828Z,174.38
2022-10-18T15:40:29.835Z,168.75
2022-10-18T15:41:29.816Z,163.12
2022-10-18T15:42:32.818Z,163.12
2022-10-18T15:43:29.809Z,157.50
2022-10-18T15:44:29.785Z,157.50
2022-10-18T15:45:29.778Z,151.88
2022-10-18T15:46:29.766Z,140.62
2022-10-18T15:47:29.892Z,135.00
2022-10-18T15:48:29.741Z,135.00
2022-10-18T15:49:29.731Z,129.38
2022-10-18T15:50:29.718Z,123.75
2022-10-18T15:51:29.701Z,123.75
2022-10-18T15:52:33.846Z,118.12
2022-10-18T15:53:29.698Z,112.50
2022-10-18T15:54:29.683Z,112.50
2022-10-18T15:55:29.708Z,112.50
2022-10-18T15:56:29.669Z,106.88
2022-10-18T15:57:32.971Z,106.88
2022-10-18T15:58:29.696Z,106.88
2022-10-18T15:59:29.624Z,106.88
2022-10-18T16:00:29.616Z,101.25
2022-10-18T16:01:29.674Z,101.25
2022-10-18T16:02:29.606Z,95.62
2022-10-18T16:03:29.592Z,95.62
2022-10-18T16:04:29.594Z,90.00
2022-10-18T16:05:29.574Z,90.00
2022-10-18T16:06:29.568Z,84.38
2022-10-18T16:07:29.767Z,84.38
2022-10-18T16:08:29.538Z,78.75
2022-10-18T16:09:29.529Z,78.75
2022-10-18T16:10:29.525Z,73.12
2022-10-18T16:11:29.514Z,67.50
2022-10-18T16:12:32.490Z,67.50
2022-10-18T16:13:29.500Z,61.88
2022-10-18T16:14:29.501Z,61.88
2022-10-18T16:15:29.460Z,56.25
2022-10-18T16:16:29.460Z,56.25
2022-10-18T16:17:29.584Z,50.62
2022-10-18T16:18:29.433Z,50.62
2022-10-18T16:19:29.443Z,45.00
2022-10-18T16:20:29.412Z,39.38
2022-10-18T16:21:29.431Z,39.38
2022-10-18T16:22:31.146Z,33.75
2022-10-18T16:23:29.379Z,33.75
2022-10-18T16:24:29.374Z,28.12
2022-10-18T16:25:29.363Z,28.12
2022-10-18T16:26:29.408Z,28.12
2022-10-18T16:27:32.337Z,22.50
2022-10-18T16:28:29.396Z,22.50
2022-10-18T16:29:29.326Z,22.50
2022-10-18T16:30:29.305Z,16.88
2022-10-18T16:31:29.323Z,16.88
2022-10-18T16:32:29.371Z,16.88
2022-10-18T16:33:29.277Z,11.25
2022-10-18T16:34:29.367Z,11.25
2022-10-18T16:35:29.258Z,11.25
2022-10-18T16:36:29.247Z,11.25
2022-10-18T16:37:29.237Z,5.62
2022-10-18T16:38:32.625Z,5.62
2022-10-18T16:39:29.247Z,5.62
2022-10-18T16:40:29.208Z,5.62
2022-10-18T16:41:29.195Z,5.62
2022-10-18T16:42:32.447Z,0.00
2022-10-18T16:43:29.223Z,0.00
2022-10-18T16:44:29.201Z,0.00
2022-10-18T16:45:29.150Z,0.00
2022-10-18T16:46:29.142Z,0.00
2022-10-18T16:47:29.123Z,0.00
2022-10-18T16:48:29.111Z,0.00
2022-10-18T16:49:29.109Z,0.00
2022-10-18T16:50:30.866Z,0.00
2022-10-18T16:51:29.114Z,0.00
2022-10-18T16:52:29.082Z,0.00
2022-10-18T16:53:29.062Z,0.00
2022-10-18T16:54:29.063Z,0.00
2022-10-18T16:55:29.044Z,0.00
2022-10-18T16:56:29.058Z,0.00
2022-10-18T16:57:32.033Z,0.00
2022-10-18T16:58:29.037Z,0.00
2022-10-18T16:59:29.011Z,0.00
2022-10-18T17:00:28.986Z,0.00
2022-10-18T17:01:29.040Z,0.00
2022-10-18T17:02:28.977Z,0.00
2022-10-18T17:03:28.967Z,0.00
2022-10-18T17:04:28.977Z,0.00
2022-10-18T17:05:28.995Z,0.00
2022-10-18T17:06:29.029Z,0.00
2022-10-18T17:07:28.987Z,0.00
2022-10-18T17:08:28.969Z,0.00
2022-10-18T17:09:28.961Z,0.00
2022-10-18T17:10:28.949Z,0.00
2022-10-18T17:11:28.931Z,0.00
2022-10-18T17:12:32.235Z,0.00
2022-10-18T17:13:28.923Z,0.00
2022-10-18T17:14:28.903Z,0.00
2022-10-18T17:15:32.811Z,0.00
2022-10-18T17:17:28.883Z,0.00
2022-10-18T17:18:28.871Z,0.00
2022-10-18T17:19:28.953Z,0.00
2022-10-18T17:20:28.836Z,0.00
2022-10-18T17:21:28.844Z,0.00
2022-10-18T17:22:28.820Z,0.00
2022-10-18T17:23:28.815Z,0.00
2022-10-18T17:24:28.795Z,0.00
2022-10-18T17:26:29.920Z,0.00
2022-10-18T17:27:32.040Z,0.00
2022-10-18T17:28:28.797Z,0.00
2022-10-18T17:29:28.757Z,0.00
2022-10-18T17:30:28.747Z,0.00
2022-10-18T17:31:28.727Z,0.00
2022-10-18T17:32:28.715Z,0.00
2022-10-18T17:33:28.707Z,0.00
2022-10-18T17:34:28.815Z,0.00
2022-10-18T17:35:28.693Z,0.00
2022-10-18T17:36:28.688Z,0.00
2022-10-18T17:37:28.671Z,0.00
2022-10-18T17:38:28.667Z,0.00
2022-10-18T17:39:28.644Z,0.00
2022-10-18T17:40:28.629Z,0.00
2022-10-18T17:41:28.637Z,0.00
2022-10-18T17:42:31.613Z,0.00
2022-10-18T17:43:28.677Z,0.00
2022-10-18T17:44:28.793Z,0.00
2022-10-18T17:45:28.583Z,0.00
2022-10-18T17:46:28.564Z,0.00
2022-10-18T17:47:28.551Z,0.00
2022-10-18T17:48:28.534Z,0.00
2022-10-18T17:49:28.572Z,0.00
2022-10-18T17:50:28.525Z,0.00
2022-10-18T17:51:28.521Z,0.00
2022-10-18T17:52:28.495Z,0.00
2022-10-18T17:53:28.505Z,0.00
2022-10-18T17:54:28.605Z,0.00
2022-10-18T17:55:28.475Z,0.00
2022-10-18T17:56:28.489Z,0.00
2022-10-18T17:57:31.675Z,0.00
2022-10-18T17:58:28.454Z,0.00
2022-10-18T17:59:28.444Z,0.00
2022-10-18T18:00:28.413Z,0.00
2022-10-18T18:01:28.459Z,0.00
2022-10-18T18:02:28.400Z,0.00
2022-10-18T18:03:28.457Z,0.00
2022-10-18T18:04:28.366Z,0.00
2022-10-18T18:05:28.364Z,0.00
2022-10-18T18:06:28.349Z,0.00
2022-10-18T18:07:28.341Z,0.00
2022-10-18T18:08:28.329Z,0.00
2022-10-18T18:09:28.319Z,0.00
2022-10-18T18:10:28.310Z,0.00
2022-10-18T18:11:28.320Z,0.00
2022-10-18T18:12:31.628Z,0.00
2022-10-18T18:13:28.292Z,0.00
2022-10-18T18:14:28.283Z,0.00
2022-10-18T18:15:28.400Z,0.00
2022-10-18T18:16:28.274Z,0.00
2022-10-18T18:17:33.978Z,0.00
2022-10-18T18:18:29.263Z,0.00
2022-10-18T18:19:28.204Z,0.00
2022-10-18T18:20:28.200Z,0.00
2022-10-18T18:21:28.193Z,0.00
2022-10-18T18:22:28.183Z,0.00
2022-10-18T18:23:28.178Z,0.00
2022-10-18T18:24:28.154Z,0.00
2022-10-18T18:25:28.151Z,0.00
2022-10-18T18:26:28.135Z,0.00
2022-10-18T18:27:31.118Z,0.00
2022-10-18T18:28:28.211Z,0.00
2022-10-18T18:29:28.097Z,0.00
2022-10-18T18:30:28.085Z,0.00
2022-10-18T18:31:30.774Z,0.00
2022-10-18T18:32:28.068Z,0.00
2022-10-18T18:33:28.058Z,0.00
2022-10-18T18:34:28.048Z,0.00
2022-10-18T18:35:28.047Z,0.00
2022-10-18T18:36:28.027Z,0.00
2022-10-18T18:37:28.017Z,0.00
2022-10-18T18:38:28.040Z,0.00
2022-10-18T18:39:28.004Z,0.00
2022-10-18T18:40:27.991Z,0.00
2022-10-18T18:41:27.980Z,0.00
2022-10-18T18:42:31.348Z,0.00
2022-10-18T18:43:28.461Z,0.00
2022-10-18T18:44:28.273Z,0.00
2022-10-18T18:45:27.930Z,0.00
2022-10-18T18:46:27.913Z,0.00
2022-10-18T18:47:27.918Z,0.00
2022-10-18T18:48:27.919Z,0.00
2022-10-18T18:49:27.871Z,0.00
2022-10-18T18:50:27.872Z,0.00
2022-10-18T18:51:27.862Z,0.00
2022-10-18T18:52:27.851Z,0.00
2022-10-18T18:53:29.562Z,0.00
2022-10-18T18:54:27.826Z,0.00
2022-10-18T18:55:27.834Z,0.00
2022-10-18T18:56:27.804Z,0.00
2022-10-18T18:57:31.035Z,0.00
2022-10-18T18:58:27.795Z,0.00
2022-10-18T18:59:27.780Z,0.00
2022-10-18T19:00:27.854Z,0.00
2022-10-18T19:01:27.782Z,0.00
2022-10-18T19:02:27.787Z,0.00
2022-10-18T19:03:27.736Z,0.00
2022-10-18T19:04:27.732Z,0.00
2022-10-18T19:05:27.730Z,0.00
2022-10-18T19:06:27.709Z,0.00
2022-10-18T19:07:27.689Z,0.00
2022-10-18T19:08:27.665Z,0.00
2022-10-18T19:09:27.670Z,0.00
2022-10-18T19:10:27.683Z,0.00
2022-10-18T19:11:27.636Z,0.00
2022-10-18T19:12:31.791Z,0.00
2022-10-18T19:13:27.643Z,0.00
2022-10-18T19:14:27.709Z,0.00
2022-10-18T19:15:27.650Z,0.00
2022-10-18T19:16:27.599Z,0.00
2022-10-18T19:17:27.591Z,0.00
2022-10-18T19:18:27.582Z,0.00
2022-10-18T19:19:27.571Z,0.00
2022-10-18T19:20:27.562Z,0.00
2022-10-18T19:21:27.539Z,0.00
2022-10-18T19:22:27.530Z,0.00
2022-10-18T19:23:27.563Z,0.00
2022-10-18T19:24:27.529Z,0.00
2022-10-18T19:25:27.502Z,0.00
2022-10-18T19:26:27.498Z,0.00
2022-10-18T19:27:30.679Z,0.00
2022-10-18T19:28:27.573Z,0.00
2022-10-18T19:29:27.460Z,0.00
2022-10-18T19:30:27.478Z,0.00
2022-10-18T19:31:27.447Z,0.00
2022-10-18T19:33:41.242Z,0.00
2022-10-18T19:34:28.420Z,0.00
2022-10-18T19:35:27.395Z,0.00
2022-10-18T19:36:27.403Z,0.00
2022-10-18T19:37:27.428Z,0.00
2022-10-18T19:38:27.386Z,0.00
2022-10-18T19:39:27.366Z,0.00
2022-10-18T19:40:27.348Z,0.00
2022-10-18T19:41:27.352Z,0.00
2022-10-18T19:42:31.432Z,0.00
2022-10-18T19:43:27.349Z,0.00
2022-10-18T19:44:27.312Z,0.00
2022-10-18T19:45:27.334Z,0.00
2022-10-18T19:46:27.305Z,0.00
2022-10-18T19:47:27.269Z,0.00
2022-10-18T19:48:27.264Z,0.00
2022-10-18T19:49:27.253Z,0.00
2022-10-18T19:50:27.359Z,0.00
2022-10-18T19:51:28.491Z,0.00
2022-10-18T19:52:27.239Z,0.00
2022-10-18T19:53:27.288Z,0.00
2022-10-18T19:54:27.203Z,0.00
2022-10-18T19:55:27.289Z,0.00
2022-10-18T19:56:27.185Z,0.00
2022-10-18T19:57:30.179Z,0.00
2022-10-18T19:58:27.189Z,0.00
2022-10-18T19:59:27.248Z,0.00
2022-10-18T20:00:27.398Z,0.00
2022-10-18T20:01:27.192Z,0.00
2022-10-18T20:02:27.255Z,0.00
2022-10-18T20:03:27.127Z,0.00
2022-10-18T20:04:27.120Z,0.00
2022-10-18T20:05:27.114Z,0.00
2022-10-18T20:06:27.131Z,0.00
2022-10-18T20:07:27.159Z,0.00
2022-10-18T20:08:27.070Z,0.00
2022-10-18T20:09:27.057Z,0.00
2022-10-18T20:10:27.052Z,0.00
2022-10-18T20:11:27.026Z,0.00